Latest Weather Observations for Nuriootpa

IDS60901

Issued at 6:55 pm CDT Monday 20 October 2014 (issued every 10 minutes, with the page automatically refreshed every 10 minutes)

About weather observations | Map of Adelaide area stations | Latest observations for Adelaide area | Other Formats
Station Details ID: 023373 Name: NURIOOTPA VITICULTURAL Lat: -34.48 Lon: 139.01 Height: 275.0 m
Data from the previous 72 hours. | See also: Recent months at Nuriootpa
Date/Time
CDT
Tmp

°C
App
Tmp
°C
Dew
Point
°C
Rel
Hum
%
Delta-T

°C
Wind Press
QNH
hPa
Press
MSL
hPa
Rain
since
9 am
mm
Dir
 
Spd
km/h
Gust
km/h
Spd
kts
Gust
kts
20/06:30pm 27.1 23.2 3.4 21 11.9 E 13 19 7 10 1021.5 1021.3 0.0
20/06:00pm 27.5 22.4 3.2 21 12.2 E 19 26 10 14 1021.3 1021.1 0.0
20/05:30pm 28.6 23.9 2.9 19 12.9 E 17 30 9 16 1021.3 1021.1 0.0
20/05:00pm 28.3 23.2 3.0 19 12.7 E 19 26 10 14 1021.4 1021.2 0.0
20/04:30pm 28.8 23.6 2.6 18 13.1 ENE 19 28 10 15 1021.5 1021.3 0.0
20/04:00pm 28.7 23.8 1.7 17 13.3 E 17 24 9 13 1021.7 1021.5 0.0
20/03:30pm 28.2 23.4 2.8 19 12.7 ENE 17 26 9 14 1022.2 1021.9 0.0
20/03:00pm 27.8 23.0 2.7 20 12.5 ENE 17 26 9 14 1022.6 1022.3 0.0
20/02:30pm 27.4 22.5 4.3 22 11.8 ENE 19 26 10 14 1023.2 1023.0 0.0
20/02:00pm 25.8 21.5 5.1 26 10.7 ENE 17 24 9 13 1023.5 1023.3 0.0
20/01:30pm 25.3 20.5 5.8 28 10.1 ENE 20 28 11 15 1023.9 1023.7 0.0
20/01:00pm 23.8 19.2 6.5 33 9.0 ENE 20 28 11 15 1024.2 1024.0 0.0
20/12:30pm 23.2 19.0 7.4 36 8.3 ENE 19 30 10 16 1024.4 1024.2 0.0
20/12:00pm 21.6 17.4 7.4 40 7.4 ENE 19 30 10 16 1024.8 1024.6 0.0
20/11:30am 20.7 16.4 7.9 43 6.7 ENE 20 30 11 16 1025.2 1025.0 0.0
20/11:00am 19.0 14.7 8.0 49 5.7 ENE 20 33 11 18 1025.5 1025.3 0.0
20/10:30am 18.2 13.5 7.9 51 5.3 ENE 22 35 12 19 1025.8 1025.5 0.0
20/10:00am 17.5 13.3 8.2 54 4.8 ENE 20 32 11 17 1026.0 1025.7 0.0
20/09:30am 16.5 12.8 7.8 56 4.4 E 17 32 9 17 1026.0 1025.7 0.0
20/09:00am 14.6 10.6 8.1 65 3.3 E 19 32 10 17 1026.0 1025.7 0.0
20/08:30am 14.1 10.1 8.4 68 2.9 E 19 32 10 17 1025.7 1025.4 0.0
20/08:00am 12.9 8.8 8.5 74 2.2 E 20 32 11 17 1025.4 1025.2 0.0
20/07:30am 11.7 8.1 8.5 81 1.6 E 17 28 9 15 1025.2 1025.0 0.0
20/07:00am 11.3 6.4 8.3 82 1.5 E 24 35 13 19 1025.0 1024.8 0.0
20/06:30am 11.2 6.7 8.4 83 1.4 E 22 37 12 20 1024.6 1024.4 0.0
20/06:00am 11.2 6.7 8.6 84 1.3 E 22 35 12 19 1024.2 1024.0 0.0
20/05:30am 11.2 7.1 8.6 84 1.3 E 20 32 11 17 1024.0 1023.8 0.0
20/05:00am 11.4 7.3 8.6 83 1.4 ESE 20 30 11 16 1023.9 1023.7 0.0
20/04:30am 11.5 7.1 8.9 84 1.3 ESE 22 33 12 18 1023.7 1023.5 0.0
20/04:00am 11.7 8.0 9.3 85 1.2 ESE 19 32 10 17 1023.5 1023.3 0.0
20/03:30am 12.0 8.3 9.5 85 1.3 ESE 19 35 10 19 1023.7 1023.5 0.0
20/03:00am 12.3 8.5 9.8 85 1.3 ESE 20 37 11 20 1023.7 1023.5 0.0
20/02:30am 12.6 9.8 9.9 83 1.4 ESE 15 30 8 16 1023.7 1023.5 0.0
20/02:00am 12.6 10.6 10.1 85 1.3 E 11 20 6 11 1023.9 1023.7 0.0
20/01:30am 13.1 10.6 9.8 80 1.7 NNE 13 24 7 13 1024.0 1023.8 0.0
20/01:00am 14.1 11.5 9.5 74 2.4 ESE 13 28 7 15 1023.7 1023.5 0.0
20/12:30am 14.7 11.3 9.1 69 2.9 ESE 17 35 9 19 1023.8 1023.6 0.0
20/12:00am 14.8 10.4 9.0 68 3.0 SE 22 39 12 21 1023.6 1023.4 0.0
 
Date/Time
CDT
Tmp

°C
App
Tmp
°C
Dew
Point
°C
Rel
Hum
%
Delta-T

°C
Wind Press
QNH
hPa
Press
MSL
hPa
Rain
since
9 am
mm
Dir
 
Spd
km/h
Gust
km/h
Spd
kts
Gust
kts
19/11:30pm 15.1 9.7 8.2 63 3.5 SE 26 43 14 23 1023.5 1023.3 0.0
19/11:00pm 15.4 9.2 7.9 61 3.8 SE 30 41 16 22 1023.4 1023.2 0.0
19/10:45pm 15.7 9.4 7.3 57 4.2 SE 30 50 16 27 1023.3 1023.1 0.0
19/10:30pm 15.9 9.1 7.1 56 4.4 SE 32 46 17 25 1023.2 1023.0 0.0
19/10:00pm 16.2 9.4 6.7 53 4.7 SE 32 44 17 24 1023.3 1023.1 0.0
19/09:52pm 16.5 10.4 6.4 51 5.0 SE 28 44 15 24 1023.3 1023.1 0.0
19/09:30pm 16.1 12.2 7.3 56 4.4 S 17 26 9 14 1023.3 1023.1 0.0
19/09:00pm 15.3 13.1 9.3 67 3.1 SSE 11 19 6 10 1023.4 1023.2 0.0
19/08:30pm 16.8 13.7 8.9 59 4.1 SE 15 22 8 12 1022.9 1022.6 0.0
19/08:00pm 18.4 16.0 10.0 58 4.5 SE 13 20 7 11 1022.4 1022.1 0.0
19/07:30pm 20.7 18.6 9.8 49 5.9 SE 11 17 6 9 1021.5 1021.3 0.0
19/07:00pm 24.9 22.2 9.0 36 8.7 S 13 22 7 12 1021.2 1021.0 0.0
19/06:30pm 28.5 23.4 -4.8 11 14.6 SSW 13 17 7 9 1020.8 1020.6 0.0
19/06:00pm 29.6 24.1 -5.2 10 15.3 SSW 15 19 8 10 1020.5 1020.3 0.0
19/05:30pm 29.9 23.4 -8.0 8 15.9 SW 19 26 10 14 1020.4 1020.2 0.0
19/05:00pm 29.6 23.1 -5.8 9 15.4 SW 20 28 11 15 1020.2 1020.0 0.0
19/04:30pm 31.0 23.8 -5.2 9 16.1 SW 24 35 13 19 1020.2 1020.0 0.0
19/04:00pm 30.5 22.9 -5.8 9 15.9 SW 26 37 14 20 1020.2 1020.0 0.0
19/03:30pm 31.4 24.8 -9.1 7 16.9 W 19 30 10 16 1020.1 1019.9 0.0
19/03:00pm 31.9 24.9 -11.7 5 17.5 W 20 32 11 17 1020.2 1020.0 0.0
19/02:30pm 31.7 24.3 -11.8 5 17.4 WNW 22 37 12 20 1020.5 1020.3 0.0
19/02:00pm 32.7 25.1 -10.4 5 17.8 WNW 24 35 13 19 1020.6 1020.4 0.0
19/01:30pm 32.1 25.5 -9.1 6 17.3 W 19 28 10 15 1020.8 1020.6 0.0
19/01:00pm 31.2 23.6 -10.0 6 16.9 W 24 37 13 20 1021.0 1020.8 0.0
19/12:30pm 31.1 23.9 -9.7 6 16.8 WNW 22 33 12 18 1021.1 1020.9 0.0
19/12:00pm 30.4 22.4 -10.4 6 16.5 WNW 26 41 14 22 1021.4 1021.2 0.0
19/11:30am 29.7 20.5 -11.2 6 16.2 WNW 32 43 17 23 1021.6 1021.4 0.0
19/11:09am 30.1 21.7 -10.2 6 16.3 WNW 28 46 15 25 1021.7 1021.5 0.0
19/11:00am 29.7 20.9 -11.2 6 16.2 NW 30 39 16 21 1021.7 1021.5 0.0
19/10:30am 28.7 21.0 -6.5 9 15.0 WNW 26 43 14 23 1021.9 1021.6 0.0
19/10:00am 28.0 19.8 -8.4 8 14.9 NW 28 43 15 23 1022.0 1021.7 0.0
19/09:30am 27.6 20.9 -7.9 9 14.6 NW 20 30 11 16 1021.9 1021.6 0.0
19/09:00am 24.0 20.6 -0.9 19 11.3 NE 7 9 4 5 1021.7 1021.5 0.0
19/08:30am 20.5 17.5 1.1 27 8.9 NNE 6 9 3 5 1021.4 1021.2 0.0
19/08:00am 17.9 14.8 1.2 32 7.5 ENE 7 9 4 5 1021.2 1021.0 0.0
19/07:30am 16.1 13.1 1.8 38 6.4 ENE 7 9 4 5 1021.1 1020.9 0.0
19/07:00am 14.9 11.9 2.2 42 5.7 NE 7 9 4 5 1020.6 1020.4 0.0
19/06:30am 14.2 10.7 1.1 41 5.7 NE 9 13 5 7 1020.1 1019.9 0.0
19/06:00am 13.1 10.0 1.6 45 5.0 NE 7 11 4 6 1019.9 1019.6 0.0
19/05:30am 13.5 10.0 1.3 43 5.3 NE 9 13 5 7 1019.5 1019.2 0.0
19/05:00am 12.2 8.6 0.9 46 4.8 E 9 13 5 7 1019.6 1019.3 0.0
19/04:30am 11.2 8.8 1.9 52 4.0 E 4 7 2 4 1019.5 1019.2 0.0
19/04:00am 11.0 8.4 3.1 58 3.5 ENE 6 7 3 4 1019.5 1019.2 0.0
19/03:30am 11.7 9.3 2.3 52 4.1 ENE 4 9 2 5 1019.8 1019.5 0.0
19/03:00am 11.9 9.3 1.1 47 4.6 SE 4 7 2 4 1020.0 1019.8 0.0
19/02:30am 13.0 10.8 1.2 44 5.1 E 2 7 1 4 1020.1 1019.9 0.0
19/02:00am 15.1 11.3 -0.5 34 6.6 NE 9 13 5 7 1020.3 1020.1 0.0
19/01:30am 17.6 12.0 -2.7 25 8.4 N 17 22 9 12 1020.5 1020.3 0.0
19/01:29am 17.6 12.0 -2.7 25 8.4 N 17 24 9 13 1020.6 1020.4 0.0
19/01:00am 12.6 9.3 2.7 51 4.4 NE 9 9 5 5 1020.4 1020.2 0.0
19/12:30am 13.1 9.8 2.2 47 4.8 NNE 9 11 5 6 1020.7 1020.5 0.0
19/12:00am 13.0 10.5 3.5 52 4.3 NE 6 7 3 4 1021.0 1020.8 0.0
 
Date/Time
CDT
Tmp

°C
App
Tmp
°C
Dew
Point
°C
Rel
Hum
%
Delta-T

°C
Wind Press
QNH
hPa
Press
MSL
hPa
Rain
since
9 am
mm
Dir
 
Spd
km/h
Gust
km/h
Spd
kts
Gust
kts
18/11:30pm 13.2 10.7 3.5 52 4.4 NNE 6 7 3 4 1021.1 1020.9 0.0
18/11:00pm 14.1 12.6 3.1 47 5.0 CALM 0 2 0 1 1021.2 1021.0 0.0
18/10:30pm 14.7 12.8 3.1 45 5.3 NE 2 7 1 4 1021.2 1021.0 0.0
18/10:00pm 15.2 12.2 1.7 40 6.0 ENE 7 7 4 4 1021.3 1021.1 0.0
18/09:30pm 15.7 13.1 3.4 43 5.7 ENE 6 7 3 4 1021.3 1021.1 0.0
18/09:00pm 16.8 13.8 2.3 37 6.6 ENE 7 7 4 4 1021.2 1021.0 0.0
18/08:30pm 18.1 16.7 3.8 38 6.8 CALM 0 0 0 0 1020.9 1020.7 0.0
18/08:00pm 20.0 17.4 3.2 33 8.0 S 6 6 3 3 1020.6 1020.4 0.0
18/07:30pm 23.2 20.4 2.0 25 10.1 SW 6 7 3 4 1020.2 1020.0 0.0
18/07:00pm 27.0 22.8 -3.9 13 13.6 W 9 11 5 6 1019.9 1019.6 0.0
18/06:30pm 27.8 22.6 -6.4 10 14.5 W 13 19 7 10 1019.7 1019.4 0.0
18/06:00pm 29.6 22.9 -8.4 8 15.8 W 20 26 11 14 1019.6 1019.3 0.0
18/05:30pm 30.1 23.2 -10.9 6 16.4 WSW 20 24 11 13 1019.5 1019.2 0.0
18/05:00pm 31.0 25.1 -10.0 6 16.8 WNW 15 28 8 15 1019.4 1019.1 0.0
18/04:30pm 31.0 24.6 -11.7 5 17.0 NW 17 24 9 13 1019.5 1019.2 0.0
18/04:00pm 32.3 26.4 -9.7 6 17.5 NW 15 28 8 15 1019.6 1019.3 0.0
18/03:30pm 31.4 24.7 -10.6 6 17.1 NW 19 26 10 14 1019.8 1019.5 0.0
18/03:00pm 31.0 24.3 -10.9 6 16.9 NW 19 33 10 18 1020.0 1019.8 0.0
18/02:30pm 30.7 24.7 -6.9 8 16.2 NW 17 26 9 14 1020.2 1020.0 0.0
18/02:00pm 30.6 24.7 -9.5 7 16.5 NW 15 22 8 12 1020.6 1020.4 0.0
18/01:30pm 30.1 23.5 -9.4 7 16.2 NW 19 24 10 13 1020.9 1020.7 0.0
18/01:00pm 30.0 23.9 -8.3 8 16.0 NW 17 26 9 14 1021.1 1020.9 0.0
18/12:30pm 29.7 23.6 -7.4 8 15.7 NW 17 26 9 14 1021.6 1021.4 0.0
18/12:00pm 29.0 23.1 -6.1 10 15.1 NNW 17 26 9 14 1022.1 1021.8 0.0
18/11:30am 28.7 22.1 -7.2 9 15.1 WNW 20 24 11 13 1022.5 1022.2 0.0
18/11:00am 27.9 22.0 -5.6 11 14.4 N 17 28 9 15 1022.7 1022.4 0.0
18/10:30am 26.4 20.1 -5.8 11 13.6 NNW 19 28 10 15 1022.8 1022.5 0.0
18/10:00am 25.9 20.2 -4.0 13 13.0 NNW 17 28 9 15 1022.7 1022.4 0.0
18/09:30am 24.4 19.6 -2.6 16 11.9 N 13 20 7 11 1022.8 1022.5 0.0
18/09:00am 22.0 17.4 -0.8 22 10.2 N 13 19 7 10 1022.9 1022.6 0.0
18/08:30am 19.8 16.1 0.1 26 8.8 NNE 9 13 5 7 1023.1 1022.9 0.0
18/08:00am 17.4 14.2 0.7 32 7.4 NE 7 9 4 5 1023.1 1022.9 0.0
18/07:30am 13.5 11.1 4.5 54 4.2 N 6 7 3 4 1022.9 1022.6 0.0
18/07:00am 11.6 8.8 2.2 52 4.1 NNE 6 9 3 5 1022.4 1022.1 0.0
18/06:30am 12.3 8.6 -0.3 42 5.2 ENE 9 11 5 6 1021.9 1021.6 0.0
18/06:00am 13.6 9.4 -0.9 37 6.0 ENE 11 13 6 7 1021.3 1021.1 0.0
18/05:30am 14.7 10.0 -1.6 32 6.7 ENE 13 17 7 9 1021.1 1020.9 0.0
18/05:00am 13.5 9.3 -0.7 37 5.9 ENE 11 13 6 7 1021.3 1021.1 0.0
18/04:30am 12.9 8.8 -0.3 40 5.5 ENE 11 13 6 7 1021.4 1021.2 0.0
18/04:00am 12.0 8.4 0.9 46 4.7 ENE 9 11 5 6 1021.5 1021.3 0.0
18/03:30am 13.6 9.9 0.1 39 5.7 NE 9 11 5 6 1021.7 1021.5 0.0
18/03:00am 15.3 10.7 -0.9 33 6.8 ENE 13 17 7 9 1021.7 1021.5 0.0
18/02:30am 15.4 10.9 -0.3 34 6.7 ENE 13 17 7 9 1022.2 1021.9 0.0
18/02:00am 16.1 11.2 -0.5 32 7.1 NE 15 20 8 11 1022.3 1022.0 0.0
18/01:30am 15.4 11.8 0.7 37 6.4 NE 9 15 5 8 1022.4 1022.1 0.0
18/01:00am 15.0 11.8 0.7 37 6.2 NE 7 9 4 5 1022.6 1022.3 0.0
18/12:30am 15.5 11.5 0.2 35 6.6 ENE 11 15 6 8 1022.6 1022.3 0.0
18/12:00am 15.7 11.6 -0.2 34 6.8 NE 11 15 6 8 1022.6 1022.3 0.0
 
Date/Time
CDT
Tmp

°C
App
Tmp
°C
Dew
Point
°C
Rel
Hum
%
Delta-T

°C
Wind Press
QNH
hPa
Press
MSL
hPa
Rain
since
9 am
mm
Dir
 
Spd
km/h
Gust
km/h
Spd
kts
Gust
kts
17/11:30pm 15.2 11.7 1.0 38 6.2 NE 9 11 5 6 1022.9 1022.6 0.0
17/11:00pm 16.1 12.9 0.5 34 6.8 NE 7 11 4 6 1023.2 1023.0 0.0
17/10:30pm 16.4 12.9 1.0 35 6.8 NE 9 11 5 6 1023.1 1022.9 0.0
17/10:00pm 16.6 13.6 1.7 36 6.7 ENE 7 11 4 6 1023.2 1023.0 0.0
17/09:30pm 17.7 14.2 1.2 33 7.4 ENE 9 13 5 7 1023.1 1022.9 0.0
17/09:00pm 16.2 14.5 3.8 43 5.8 E 2 6 1 3 1023.0 1022.7 0.0
17/08:30pm 17.3 15.6 4.0 41 6.3 ESE 2 7 1 4 1022.6 1022.3 0.0
17/08:00pm 19.3 16.8 3.6 35 7.5 NE 6 9 3 5 1022.4 1022.1 0.0
17/07:30pm 21.7 18.2 1.2 25 9.5 ENE 9 13 5 7 1021.9 1021.6 0.0
17/07:00pm 23.3 19.7 0.7 22 10.5 ENE 9 17 5 9 1021.9 1021.6 0.0

Latest Capital City Observations: Canberra | Sydney | Melbourne | Brisbane | Adelaide | Perth | Hobart | Darwin

Other Formats:

Comma delimited format used in spreadsheet applications
http://www.bom.gov.au/fwo/IDS60901/IDS60901.94681.axf

JavaScript Object Notation format (JSON) in row-major order
http://www.bom.gov.au/fwo/IDS60901/IDS60901.94681.json